Airfield :
LOGIN :

Register | Disclaimer

   EN    FR    IT 

 










Legend :    VFR   Marginal VFR   IFR   Intensive IFR   Very Intensive IFR
Visi :
Ceiling :
>= 8 km
>= 3000ft
5 to 8 km
1000 to 3000 ft
1500m to 5 km
500 to 1000 ft
800 to 1500m
200 to 500 ft
< 800m
< 200 ft
Symbols :   Thunderstorms  Fog  Heavy snow  Heavy precipitations  Wind > 20 kt
SIGMETs :     Misc.  Thunderstorms  Icing  Turbulence  Mountain Waves  Volcanic Ashes







- Airport Elevation : 1411 ft
- IATA code : SZG


LOWS - Salzburg

CURRENT METAR :
  • 171420Z 05007KT 9999 FEW015 SCT025 M03/M08 Q1029 R15/420195 NOSIG

EXPIRED METARs :
  • 171350Z 04007KT 010V080 9999 FEW016 SCT023 M04/M08 Q1029 R15/490295 NOSIG
  • 171320Z 05009KT 010V080 9999 FEW016 SCT023 M03/M08 Q1029 R15/490295 NOSIG
  • 171250Z 05011KT 010V070 9999 FEW016 SCT023 M03/M07 Q1029 R15/490295 NOSIG
  • 171220Z 04011KT 9999 -SHSN FEW016 SCT023 M03/M07 Q1029 R15/490295 NOSIG
  • 171150Z 04007KT 010V070 9999 SCT018 BKN060 M03/M07 Q1029 R15/490295 NOSIG

TAF TAF LOWS
Valid from the 17 at 12:00 until the 18 at 12:00 UTC


171115Z 1712/1812 03005KT 9999 SCT020 BKN050 TXM03/1712Z TNM10/1806Z
PROB30
TEMPO 1712/1714 4000 -SHSN SCT010 BKN015
BECMG 1717/1720 15005KT BKN030
BECMG 1804/1807 FEW045
No reported NOTAMs for that airfield.



MET'MAP, your aeronautical weather chart ! - Copyright ORBIFLY December 2007 - Disclaimer

ORBIFLY MET'MAP TEAM :

Programming & Development : Alexandra Zaïnal
Concept & Development : Baudouin d'Aumeries
Co-Development & Prog : Marc-Olivier Méhu
Technical & hardware support : Manuel Goepfert

Contact : metmap@orbifly.com




SOURCES & CREDITS :

   NOAA